KCAV

Clarion Municipal Airport

Clarion, Iowa, USA
METAR KCAV 150315Z AUTO 00000KT 5SM BR CLR 23/22 A2993 RMK AO2 PWINO
Observed Flight Rules
Aug-15 @ 03:15 UTC (21 minutes ago) Marginal Visual Flight Rules
Visibility Clouds Conditions
5 miles
  • Clear skies
  • Mist
Temperatures Readings
Current 23°C / 73°F
Dewpoint 22°C / 72°F
Humidity 94%
Altimeter 29.93" Hg
Pressure 1014 hPa
Elevation 354
METAR KCAV 150315Z AUTO 00000KT 5SM BR CLR 23/22 A2993 RMK AO2 PWINO
Observed Flight Rules
Aug-15 @ 03:15 UTC
(21 minutes ago)
MVFR
Clouds
  • Clear skies
Conditions
  • Mist
Temperature Dewpoint
23°C / 73°F 22°C / 72°F
Humidity Altimeter Pressure
94% 29.93" Hg 1014 hPa